sensor_id;sensor_type;location;lat;lon;timestamp;pressure;altitude;pressure_sealevel;temperature;humidity
550;BME280;20066;48.764;9.176;2023-07-13T00:01:45;98148.22;;;23.63;42.58
550;BME280;20066;48.764;9.176;2023-07-13T00:04:23;98147.59;;;23.44;43.04
550;BME280;20066;48.764;9.176;2023-07-13T00:06:55;98146.13;;;23.58;42.94
550;BME280;20066;48.764;9.176;2023-07-13T00:09:28;98146.59;;;24.00;42.52
550;BME280;20066;48.764;9.176;2023-07-13T00:11:57;98147.00;;;23.40;43.54
550;BME280;20066;48.764;9.176;2023-07-13T00:14:28;98147.34;;;23.42;43.27
550;BME280;20066;48.764;9.176;2023-07-13T00:16:57;98141.56;;;23.99;41.95
550;BME280;20066;48.764;9.176;2023-07-13T00:19:27;98137.13;;;23.72;42.38
550;BME280;20066;48.764;9.176;2023-07-13T00:21:57;98132.22;;;23.37;43.41
550;BME280;20066;48.764;9.176;2023-07-13T00:24:27;98141.41;;;22.96;42.85
550;BME280;20066;48.764;9.176;2023-07-13T00:26:57;98140.94;;;23.36;42.08
550;BME280;20066;48.764;9.176;2023-07-13T00:29:26;98141.47;;;24.08;41.25
550;BME280;20066;48.764;9.176;2023-07-13T00:31:57;98137.22;;;23.77;41.78
550;BME280;20066;48.764;9.176;2023-07-13T00:34:25;98145.00;;;24.08;40.93
550;BME280;20066;48.764;9.176;2023-07-13T00:36:53;98136.84;;;23.99;41.33
550;BME280;20066;48.764;9.176;2023-07-13T00:39:27;98146.03;;;23.28;42.59
550;BME280;20066;48.764;9.176;2023-07-13T00:41:57;98137.41;;;24.18;40.71
550;BME280;20066;48.764;9.176;2023-07-13T00:44:30;98141.09;;;23.18;42.53
550;BME280;20066;48.764;9.176;2023-07-13T00:47:02;98147.53;;;23.68;41.23
550;BME280;20066;48.764;9.176;2023-07-13T00:49:32;98147.66;;;22.73;42.77
550;BME280;20066;48.764;9.176;2023-07-13T00:52:03;98155.09;;;22.39;43.25
550;BME280;20066;48.764;9.176;2023-07-13T00:54:38;98149.88;;;22.17;43.59
550;BME280;20066;48.764;9.176;2023-07-13T00:57:12;98154.16;;;22.09;44.18
550;BME280;20066;48.764;9.176;2023-07-13T00:59:46;98159.28;;;23.54;40.78
550;BME280;20066;48.764;9.176;2023-07-13T01:02:16;98164.38;;;22.75;42.54
550;BME280;20066;48.764;9.176;2023-07-13T01:04:45;98170.19;;;23.00;41.80
550;BME280;20066;48.764;9.176;2023-07-13T01:07:14;98163.47;;;23.25;41.17
550;BME280;20066;48.764;9.176;2023-07-13T01:09:45;98166.06;;;22.39;43.04
550;BME280;20066;48.764;9.176;2023-07-13T01:12:13;98157.97;;;22.03;44.18
550;BME280;20066;48.764;9.176;2023-07-13T01:14:42;98174.59;;;22.41;42.46
550;BME280;20066;48.764;9.176;2023-07-13T01:17:13;98176.94;;;22.90;42.51
550;BME280;20066;48.764;9.176;2023-07-13T01:19:44;98168.09;;;22.95;41.93
550;BME280;20066;48.764;9.176;2023-07-13T01:22:19;98160.97;;;22.89;42.41
550;BME280;20066;48.764;9.176;2023-07-13T01:24:55;98169.44;;;22.67;42.73
550;BME280;20066;48.764;9.176;2023-07-13T01:27:25;98162.47;;;23.52;40.98
550;BME280;20066;48.764;9.176;2023-07-13T01:29:56;98165.94;;;23.91;40.70
550;BME280;20066;48.764;9.176;2023-07-13T01:32:30;98165.28;;;23.96;40.60
550;BME280;20066;48.764;9.176;2023-07-13T01:35:00;98165.63;;;23.60;41.76
550;BME280;20066;48.764;9.176;2023-07-13T01:37:31;98169.84;;;23.08;43.19
550;BME280;20066;48.764;9.176;2023-07-13T01:40:02;98171.59;;;22.63;43.64
550;BME280;20066;48.764;9.176;2023-07-13T01:42:31;98174.31;;;23.43;41.45
550;BME280;20066;48.764;9.176;2023-07-13T01:45:01;98178.66;;;22.55;43.24
550;BME280;20066;48.764;9.176;2023-07-13T01:47:31;98180.28;;;23.18;43.32
550;BME280;20066;48.764;9.176;2023-07-13T01:50:00;98175.72;;;22.58;44.95
550;BME280;20066;48.764;9.176;2023-07-13T01:52:28;98180.03;;;22.83;44.82
550;BME280;20066;48.764;9.176;2023-07-13T01:54:59;98162.97;;;22.88;45.07
550;BME280;20066;48.764;9.176;2023-07-13T01:57:32;98172.03;;;22.71;45.40
550;BME280;20066;48.764;9.176;2023-07-13T02:00:03;98176.19;;;23.14;43.98
550;BME280;20066;48.764;9.176;2023-07-13T02:02:34;98171.84;;;23.46;43.91
550;BME280;20066;48.764;9.176;2023-07-13T02:05:06;98181.63;;;22.99;43.84
550;BME280;20066;48.764;9.176;2023-07-13T02:07:36;98181.44;;;22.37;45.01
550;BME280;20066;48.764;9.176;2023-07-13T02:10:09;98176.38;;;22.86;44.47
550;BME280;20066;48.764;9.176;2023-07-13T02:12:43;98176.84;;;23.09;43.05
550;BME280;20066;48.764;9.176;2023-07-13T02:15:11;98186.53;;;23.19;43.57
550;BME280;20066;48.764;9.176;2023-07-13T02:17:40;98184.66;;;23.25;43.89
550;BME280;20066;48.764;9.176;2023-07-13T02:20:09;98196.09;;;22.99;44.68
550;BME280;20066;48.764;9.176;2023-07-13T02:22:37;98182.38;;;22.99;44.68
550;BME280;20066;48.764;9.176;2023-07-13T02:25:07;98186.41;;;22.56;45.35
550;BME280;20066;48.764;9.176;2023-07-13T02:27:37;98193.22;;;22.28;46.20
550;BME280;20066;48.764;9.176;2023-07-13T02:30:08;98184.53;;;22.29;46.38
550;BME280;20066;48.764;9.176;2023-07-13T02:32:36;98192.84;;;22.02;47.13
550;BME280;20066;48.764;9.176;2023-07-13T02:35:09;98189.50;;;22.49;46.13
550;BME280;20066;48.764;9.176;2023-07-13T02:37:37;98194.06;;;22.85;45.32
550;BME280;20066;48.764;9.176;2023-07-13T02:40:09;98196.84;;;22.67;44.60
550;BME280;20066;48.764;9.176;2023-07-13T02:42:38;98202.19;;;22.80;44.83
550;BME280;20066;48.764;9.176;2023-07-13T02:45:09;98194.88;;;22.67;45.38
550;BME280;20066;48.764;9.176;2023-07-13T02:47:37;98196.47;;;22.50;45.72
550;BME280;20066;48.764;9.176;2023-07-13T02:50:07;98201.31;;;22.13;46.65
550;BME280;20066;48.764;9.176;2023-07-13T02:52:40;98195.84;;;22.55;46.03
550;BME280;20066;48.764;9.176;2023-07-13T02:55:13;98200.97;;;22.29;46.56
550;BME280;20066;48.764;9.176;2023-07-13T02:57:44;98195.88;;;21.86;47.38
550;BME280;20066;48.764;9.176;2023-07-13T03:00:17;98194.22;;;21.25;48.69
550;BME280;20066;48.764;9.176;2023-07-13T03:02:46;98201.31;;;20.95;48.79
550;BME280;20066;48.764;9.176;2023-07-13T03:05:16;98198.03;;;21.36;47.80
550;BME280;20066;48.764;9.176;2023-07-13T03:07:48;98203.19;;;21.52;46.88
550;BME280;20066;48.764;9.176;2023-07-13T03:10:18;98210.34;;;21.77;46.24
550;BME280;20066;48.764;9.176;2023-07-13T03:12:46;98202.72;;;21.27;47.41
550;BME280;20066;48.764;9.176;2023-07-13T03:15:15;98213.84;;;21.87;46.51
550;BME280;20066;48.764;9.176;2023-07-13T03:17:46;98206.69;;;21.80;46.68
550;BME280;20066;48.764;9.176;2023-07-13T03:20:17;98213.53;;;21.30;48.73
550;BME280;20066;48.764;9.176;2023-07-13T03:22:46;98212.47;;;21.28;48.20
550;BME280;20066;48.764;9.176;2023-07-13T03:25:15;98223.00;;;20.89;49.10
550;BME280;20066;48.764;9.176;2023-07-13T03:27:47;98223.25;;;20.64;50.07
550;BME280;20066;48.764;9.176;2023-07-13T03:30:18;98225.50;;;21.14;48.12
550;BME280;20066;48.764;9.176;2023-07-13T03:32:48;98233.38;;;20.94;48.67
550;BME280;20066;48.764;9.176;2023-07-13T03:35:16;98227.47;;;21.14;48.18
550;BME280;20066;48.764;9.176;2023-07-13T03:37:46;98228.59;;;21.35;47.20
550;BME280;20066;48.764;9.176;2023-07-13T03:40:20;98236.38;;;21.64;46.75
550;BME280;20066;48.764;9.176;2023-07-13T03:42:50;98236.03;;;21.25;47.16
550;BME280;20066;48.764;9.176;2023-07-13T03:45:20;98238.19;;;21.94;46.21
550;BME280;20066;48.764;9.176;2023-07-13T03:47:48;98242.84;;;22.39;45.68
550;BME280;20066;48.764;9.176;2023-07-13T03:50:17;98244.81;;;22.39;45.40
550;BME280;20066;48.764;9.176;2023-07-13T03:52:47;98241.63;;;22.40;45.66
550;BME280;20066;48.764;9.176;2023-07-13T03:55:16;98239.88;;;22.52;45.19
550;BME280;20066;48.764;9.176;2023-07-13T03:57:45;98248.19;;;22.34;45.79
550;BME280;20066;48.764;9.176;2023-07-13T04:00:16;98254.03;;;22.59;45.66
550;BME280;20066;48.764;9.176;2023-07-13T04:02:49;98249.72;;;22.77;45.08
550;BME280;20066;48.764;9.176;2023-07-13T04:05:19;98249.28;;;22.78;44.92
550;BME280;20066;48.764;9.176;2023-07-13T04:07:52;98257.25;;;22.58;44.90
550;BME280;20066;48.764;9.176;2023-07-13T04:10:20;98251.81;;;22.82;44.98
550;BME280;20066;48.764;9.176;2023-07-13T04:12:53;98255.53;;;22.70;44.97
550;BME280;20066;48.764;9.176;2023-07-13T04:15:28;98260.41;;;21.69;47.28
550;BME280;20066;48.764;9.176;2023-07-13T04:18:01;98253.50;;;22.28;46.31
550;BME280;20066;48.764;9.176;2023-07-13T04:20:31;98255.31;;;22.49;46.01
550;BME280;20066;48.764;9.176;2023-07-13T04:23:02;98258.88;;;22.74;45.73
550;BME280;20066;48.764;9.176;2023-07-13T04:25:37;98263.03;;;22.51;45.82
550;BME280;20066;48.764;9.176;2023-07-13T04:28:07;98259.91;;;22.85;45.08
550;BME280;20066;48.764;9.176;2023-07-13T04:30:41;98267.16;;;22.55;46.23
550;BME280;20066;48.764;9.176;2023-07-13T04:33:12;98264.50;;;22.79;45.68
550;BME280;20066;48.764;9.176;2023-07-13T04:35:43;98268.31;;;22.12;46.89
550;BME280;20066;48.764;9.176;2023-07-13T04:38:15;98267.31;;;22.52;45.87
550;BME280;20066;48.764;9.176;2023-07-13T04:40:45;98258.84;;;22.22;46.48
550;BME280;20066;48.764;9.176;2023-07-13T04:43:21;98266.72;;;22.48;45.97
550;BME280;20066;48.764;9.176;2023-07-13T04:45:55;98276.81;;;22.33;46.68
550;BME280;20066;48.764;9.176;2023-07-13T04:48:32;98279.34;;;22.54;46.18
550;BME280;20066;48.764;9.176;2023-07-13T04:51:00;98269.97;;;22.28;46.58
550;BME280;20066;48.764;9.176;2023-07-13T04:53:38;98269.06;;;22.22;47.47
550;BME280;20066;48.764;9.176;2023-07-13T04:56:06;98265.22;;;22.28;47.10
550;BME280;20066;48.764;9.176;2023-07-13T04:58:34;98271.31;;;22.42;46.68
550;BME280;20066;48.764;9.176;2023-07-13T05:01:08;98275.50;;;22.70;45.82
550;BME280;20066;48.764;9.176;2023-07-13T05:03:42;98273.97;;;22.69;45.76
550;BME280;20066;48.764;9.176;2023-07-13T05:06:12;98274.81;;;22.42;46.05
550;BME280;20066;48.764;9.176;2023-07-13T05:08:44;98278.50;;;22.12;46.79
550;BME280;20066;48.764;9.176;2023-07-13T05:11:18;98278.78;;;21.50;48.30
550;BME280;20066;48.764;9.176;2023-07-13T05:13:51;98280.00;;;22.40;47.15
550;BME280;20066;48.764;9.176;2023-07-13T05:16:22;98286.03;;;22.62;46.36
550;BME280;20066;48.764;9.176;2023-07-13T05:18:50;98277.88;;;21.89;46.75
550;BME280;20066;48.764;9.176;2023-07-13T05:21:19;98283.75;;;22.52;46.82
550;BME280;20066;48.764;9.176;2023-07-13T05:23:50;98290.09;;;22.85;46.37
550;BME280;20066;48.764;9.176;2023-07-13T05:26:18;98286.97;;;23.01;45.16
550;BME280;20066;48.764;9.176;2023-07-13T05:28:48;98284.44;;;22.89;45.50
550;BME280;20066;48.764;9.176;2023-07-13T05:31:16;98283.94;;;22.90;44.94
550;BME280;20066;48.764;9.176;2023-07-13T05:33:47;98277.91;;;21.80;45.66
550;BME280;20066;48.764;9.176;2023-07-13T05:36:17;98284.31;;;21.96;44.40
550;BME280;20066;48.764;9.176;2023-07-13T05:38:50;98289.44;;;22.39;43.95
550;BME280;20066;48.764;9.176;2023-07-13T05:41:18;98287.66;;;22.27;43.52
550;BME280;20066;48.764;9.176;2023-07-13T05:43:46;98291.66;;;22.59;43.48
550;BME280;20066;48.764;9.176;2023-07-13T05:46:20;98297.66;;;22.48;43.01
550;BME280;20066;48.764;9.176;2023-07-13T05:48:51;98298.28;;;21.88;44.21
550;BME280;20066;48.764;9.176;2023-07-13T05:51:21;98287.47;;;22.21;43.85
550;BME280;20066;48.764;9.176;2023-07-13T05:53:51;98300.13;;;22.88;42.38
550;BME280;20066;48.764;9.176;2023-07-13T05:56:25;98299.09;;;22.77;43.00
550;BME280;20066;48.764;9.176;2023-07-13T05:58:55;98300.13;;;22.88;42.99
550;BME280;20066;48.764;9.176;2023-07-13T06:01:24;98293.69;;;21.40;45.61
550;BME280;20066;48.764;9.176;2023-07-13T06:04:04;98306.00;;;22.72;43.58
550;BME280;20066;48.764;9.176;2023-07-13T06:06:35;98304.00;;;23.05;42.80
550;BME280;20066;48.764;9.176;2023-07-13T06:09:10;98309.94;;;22.80;43.04
550;BME280;20066;48.764;9.176;2023-07-13T06:11:45;98312.53;;;22.65;42.24
550;BME280;20066;48.764;9.176;2023-07-13T06:14:13;98315.94;;;22.42;42.89
550;BME280;20066;48.764;9.176;2023-07-13T06:16:44;98315.44;;;23.37;41.80
550;BME280;20066;48.764;9.176;2023-07-13T06:19:14;98316.34;;;22.59;42.33
550;BME280;20066;48.764;9.176;2023-07-13T06:21:47;98325.19;;;22.72;41.67
550;BME280;20066;48.764;9.176;2023-07-13T06:24:18;98327.81;;;23.41;41.60
550;BME280;20066;48.764;9.176;2023-07-13T06:26:47;98324.00;;;22.46;41.40
550;BME280;20066;48.764;9.176;2023-07-13T06:29:18;98327.88;;;21.35;44.18
550;BME280;20066;48.764;9.176;2023-07-13T06:31:48;98325.53;;;21.83;43.33
550;BME280;20066;48.764;9.176;2023-07-13T06:37:42;98336.63;;;22.71;41.14
550;BME280;20066;48.764;9.176;2023-07-13T06:40:14;98347.22;;;21.41;43.14
550;BME280;20066;48.764;9.176;2023-07-13T06:42:46;98346.66;;;21.82;42.75
550;BME280;20066;48.764;9.176;2023-07-13T06:45:14;98345.69;;;22.95;39.94
550;BME280;20066;48.764;9.176;2023-07-13T06:47:50;98346.28;;;22.11;42.02
550;BME280;20066;48.764;9.176;2023-07-13T06:50:34;98339.38;;;22.52;40.97
550;BME280;20066;48.764;9.176;2023-07-13T06:53:05;98344.09;;;21.97;41.27
550;BME280;20066;48.764;9.176;2023-07-13T06:55:40;98351.56;;;23.12;40.10
550;BME280;20066;48.764;9.176;2023-07-13T06:58:16;98353.53;;;23.77;39.33
550;BME280;20066;48.764;9.176;2023-07-13T07:00:46;98353.69;;;23.97;38.46
550;BME280;20066;48.764;9.176;2023-07-13T07:03:35;98353.72;;;24.36;39.17
550;BME280;20066;48.764;9.176;2023-07-13T07:06:11;98349.53;;;24.70;37.76
550;BME280;20066;48.764;9.176;2023-07-13T07:08:42;98353.63;;;23.83;37.93
550;BME280;20066;48.764;9.176;2023-07-13T07:11:12;98359.81;;;23.12;37.64
550;BME280;20066;48.764;9.176;2023-07-13T07:13:42;98358.84;;;22.63;39.52
550;BME280;20066;48.764;9.176;2023-07-13T07:16:10;98356.09;;;23.24;38.67
550;BME280;20066;48.764;9.176;2023-07-13T07:18:38;98355.66;;;23.58;38.44
550;BME280;20066;48.764;9.176;2023-07-13T07:21:06;98357.50;;;23.76;37.00
550;BME280;20066;48.764;9.176;2023-07-13T07:23:34;98360.31;;;24.29;37.13
550;BME280;20066;48.764;9.176;2023-07-13T07:26:04;98359.34;;;24.17;35.63
550;BME280;20066;48.764;9.176;2023-07-13T07:28:31;98355.75;;;23.64;36.54
550;BME280;20066;48.764;9.176;2023-07-13T07:31:02;98357.50;;;24.68;34.37
550;BME280;20066;48.764;9.176;2023-07-13T07:33:33;98353.47;;;24.78;34.89
550;BME280;20066;48.764;9.176;2023-07-13T07:36:02;98357.69;;;24.49;34.64
550;BME280;20066;48.764;9.176;2023-07-13T07:38:32;98346.69;;;24.49;35.04
550;BME280;20066;48.764;9.176;2023-07-13T07:41:04;98351.06;;;24.71;34.39
550;BME280;20066;48.764;9.176;2023-07-13T07:43:35;98350.38;;;24.61;35.74
550;BME280;20066;48.764;9.176;2023-07-13T07:46:03;98351.75;;;25.30;33.90
550;BME280;20066;48.764;9.176;2023-07-13T07:48:31;98353.84;;;25.35;34.50
550;BME280;20066;48.764;9.176;2023-07-13T07:50:59;98354.44;;;25.24;34.54
550;BME280;20066;48.764;9.176;2023-07-13T07:53:27;98359.41;;;25.76;33.91
550;BME280;20066;48.764;9.176;2023-07-13T07:55:57;98356.66;;;24.47;34.45
550;BME280;20066;48.764;9.176;2023-07-13T07:58:46;98347.88;;;25.22;34.03
550;BME280;20066;48.764;9.176;2023-07-13T08:01:16;98354.03;;;26.27;32.51
550;BME280;20066;48.764;9.176;2023-07-13T08:03:47;98367.31;;;26.49;31.53
550;BME280;20066;48.764;9.176;2023-07-13T08:06:18;98364.50;;;25.62;32.79
550;BME280;20066;48.764;9.176;2023-07-13T08:08:49;98360.47;;;24.64;33.19
550;BME280;20066;48.764;9.176;2023-07-13T08:11:17;98367.09;;;25.02;32.17
550;BME280;20066;48.764;9.176;2023-07-13T08:13:49;98365.78;;;25.82;32.11
550;BME280;20066;48.764;9.176;2023-07-13T08:16:20;98360.00;;;25.30;32.75
550;BME280;20066;48.764;9.176;2023-07-13T08:18:49;98363.53;;;25.30;31.88
550;BME280;20066;48.764;9.176;2023-07-13T08:21:16;98362.13;;;25.35;31.30
550;BME280;20066;48.764;9.176;2023-07-13T08:23:46;98367.94;;;26.13;31.82
550;BME280;20066;48.764;9.176;2023-07-13T08:26:14;98364.59;;;26.29;30.82
550;BME280;20066;48.764;9.176;2023-07-13T08:28:42;98363.03;;;25.82;33.04
550;BME280;20066;48.764;9.176;2023-07-13T08:31:11;98360.22;;;26.42;30.95
550;BME280;20066;48.764;9.176;2023-07-13T08:33:39;98355.00;;;25.63;31.80
550;BME280;20066;48.764;9.176;2023-07-13T08:36:07;98364.50;;;25.62;32.14
550;BME280;20066;48.764;9.176;2023-07-13T08:38:35;98362.84;;;26.31;31.46
550;BME280;20066;48.764;9.176;2023-07-13T08:41:11;98368.53;;;26.48;30.59
550;BME280;20066;48.764;9.176;2023-07-13T08:43:41;98364.16;;;26.36;30.48
550;BME280;20066;48.764;9.176;2023-07-13T08:46:15;98367.84;;;27.10;29.75
550;BME280;20066;48.764;9.176;2023-07-13T08:48:48;98366.97;;;26.93;29.74
550;BME280;20066;48.764;9.176;2023-07-13T08:51:24;98359.13;;;26.86;30.94
550;BME280;20066;48.764;9.176;2023-07-13T08:53:57;98366.75;;;27.28;29.58
550;BME280;20066;48.764;9.176;2023-07-13T08:56:29;98358.06;;;26.78;32.56
550;BME280;20066;48.764;9.176;2023-07-13T08:58:58;98368.72;;;26.65;31.64
550;BME280;20066;48.764;9.176;2023-07-13T09:01:33;98368.91;;;26.61;31.80
550;BME280;20066;48.764;9.176;2023-07-13T09:04:11;98367.56;;;26.77;31.58
550;BME280;20066;48.764;9.176;2023-07-13T09:06:56;98372.91;;;27.91;29.40
550;BME280;20066;48.764;9.176;2023-07-13T09:09:37;98365.63;;;27.14;31.35
550;BME280;20066;48.764;9.176;2023-07-13T09:12:10;98373.69;;;26.35;31.65
550;BME280;20066;48.764;9.176;2023-07-13T09:14:43;98375.97;;;26.88;31.72
550;BME280;20066;48.764;9.176;2023-07-13T09:17:18;98383.66;;;27.84;30.59
550;BME280;20066;48.764;9.176;2023-07-13T09:19:48;98370.03;;;27.32;30.12
550;BME280;20066;48.764;9.176;2023-07-13T09:22:20;98368.34;;;26.77;30.87
550;BME280;20066;48.764;9.176;2023-07-13T09:24:57;98367.53;;;26.71;31.32
550;BME280;20066;48.764;9.176;2023-07-13T09:27:30;98367.66;;;26.62;31.37
550;BME280;20066;48.764;9.176;2023-07-13T09:30:20;98373.50;;;26.18;31.87
550;BME280;20066;48.764;9.176;2023-07-13T09:32:53;98385.13;;;27.79;29.77
550;BME280;20066;48.764;9.176;2023-07-13T09:35:24;98375.56;;;27.75;29.39
550;BME280;20066;48.764;9.176;2023-07-13T09:37:57;98366.34;;;27.89;29.53
550;BME280;20066;48.764;9.176;2023-07-13T09:40:35;98364.97;;;27.68;28.80
550;BME280;20066;48.764;9.176;2023-07-13T09:43:05;98372.34;;;27.08;29.66
550;BME280;20066;48.764;9.176;2023-07-13T09:45:34;98382.84;;;27.30;31.24
550;BME280;20066;48.764;9.176;2023-07-13T09:48:07;98372.00;;;27.26;29.75
550;BME280;20066;48.764;9.176;2023-07-13T09:50:37;98377.84;;;27.76;28.78
550;BME280;20066;48.764;9.176;2023-07-13T09:53:11;98376.28;;;28.23;30.88
550;BME280;20066;48.764;9.176;2023-07-13T09:55:41;98376.69;;;28.92;27.42
550;BME280;20066;48.764;9.176;2023-07-13T09:58:12;98371.09;;;28.48;28.66
550;BME280;20066;48.764;9.176;2023-07-13T10:00:41;98368.06;;;29.52;26.97
550;BME280;20066;48.764;9.176;2023-07-13T10:03:17;98364.84;;;28.69;27.82
550;BME280;20066;48.764;9.176;2023-07-13T10:05:51;98366.41;;;27.52;30.17
550;BME280;20066;48.764;9.176;2023-07-13T10:08:23;98369.13;;;27.94;30.77
550;BME280;20066;48.764;9.176;2023-07-13T10:10:58;98379.28;;;28.20;29.99
550;BME280;20066;48.764;9.176;2023-07-13T10:13:28;98372.78;;;28.23;27.88
550;BME280;20066;48.764;9.176;2023-07-13T10:15:57;98377.63;;;28.45;29.06
550;BME280;20066;48.764;9.176;2023-07-13T10:18:28;98378.66;;;29.53;27.49
550;BME280;20066;48.764;9.176;2023-07-13T10:21:09;98366.03;;;29.52;26.84
550;BME280;20066;48.764;9.176;2023-07-13T10:24:04;98371.50;;;28.24;27.96
550;BME280;20066;48.764;9.176;2023-07-13T10:26:34;98376.13;;;28.49;28.15
550;BME280;20066;48.764;9.176;2023-07-13T10:29:11;98376.16;;;29.27;26.27
550;BME280;20066;48.764;9.176;2023-07-13T10:31:41;98364.06;;;29.36;25.65
550;BME280;20066;48.764;9.176;2023-07-13T10:34:12;98358.75;;;29.43;27.20
550;BME280;20066;48.764;9.176;2023-07-13T10:36:43;98363.38;;;29.99;26.84
550;BME280;20066;48.764;9.176;2023-07-13T10:39:16;98369.22;;;28.11;28.11
550;BME280;20066;48.764;9.176;2023-07-13T10:41:48;98364.78;;;29.59;27.28
550;BME280;20066;48.764;9.176;2023-07-13T10:44:21;98363.84;;;30.03;26.62
550;BME280;20066;48.764;9.176;2023-07-13T10:46:55;98371.63;;;28.74;26.60
550;BME280;20066;48.764;9.176;2023-07-13T10:49:26;98367.47;;;28.25;26.62
550;BME280;20066;48.764;9.176;2023-07-13T10:51:56;98358.53;;;29.30;27.59
550;BME280;20066;48.764;9.176;2023-07-13T10:54:27;98360.63;;;27.98;27.85
550;BME280;20066;48.764;9.176;2023-07-13T10:57:13;98362.53;;;27.81;28.25
550;BME280;20066;48.764;9.176;2023-07-13T10:59:45;98362.59;;;29.07;26.79
550;BME280;20066;48.764;9.176;2023-07-13T11:02:23;98363.81;;;28.78;27.70
550;BME280;20066;48.764;9.176;2023-07-13T11:04:56;98352.94;;;29.41;25.96
550;BME280;20066;48.764;9.176;2023-07-13T11:07:26;98360.25;;;28.50;27.43
550;BME280;20066;48.764;9.176;2023-07-13T11:09:56;98361.06;;;29.17;26.36
550;BME280;20066;48.764;9.176;2023-07-13T11:12:49;98362.06;;;28.69;26.68
550;BME280;20066;48.764;9.176;2023-07-13T11:15:31;98350.94;;;30.22;25.96
550;BME280;20066;48.764;9.176;2023-07-13T11:18:02;98341.75;;;30.33;27.36
550;BME280;20066;48.764;9.176;2023-07-13T11:20:38;98341.63;;;30.14;27.22
550;BME280;20066;48.764;9.176;2023-07-13T11:23:20;98346.84;;;29.76;26.90
550;BME280;20066;48.764;9.176;2023-07-13T11:25:48;98340.03;;;28.16;27.59
550;BME280;20066;48.764;9.176;2023-07-13T11:28:22;98335.94;;;27.09;29.66
550;BME280;20066;48.764;9.176;2023-07-13T11:31:00;98342.56;;;28.14;28.38
550;BME280;20066;48.764;9.176;2023-07-13T11:33:49;98332.72;;;30.27;25.38
550;BME280;20066;48.764;9.176;2023-07-13T11:36:21;98333.59;;;28.91;26.92
550;BME280;20066;48.764;9.176;2023-07-13T11:38:57;98331.28;;;30.55;25.21
550;BME280;20066;48.764;9.176;2023-07-13T11:41:29;98335.38;;;31.63;24.73
550;BME280;20066;48.764;9.176;2023-07-13T11:44:05;98335.91;;;32.23;24.04
550;BME280;20066;48.764;9.176;2023-07-13T11:46:34;98331.56;;;32.92;22.23
550;BME280;20066;48.764;9.176;2023-07-13T11:49:04;98335.84;;;32.61;23.49
550;BME280;20066;48.764;9.176;2023-07-13T11:51:35;98327.56;;;28.98;27.06
550;BME280;20066;48.764;9.176;2023-07-13T11:54:05;98332.78;;;28.41;26.91
550;BME280;20066;48.764;9.176;2023-07-13T11:56:34;98325.66;;;29.73;26.86
550;BME280;20066;48.764;9.176;2023-07-13T11:59:06;98335.34;;;30.49;24.95
550;BME280;20066;48.764;9.176;2023-07-13T12:01:36;98331.72;;;31.49;24.84
550;BME280;20066;48.764;9.176;2023-07-13T12:04:20;98339.63;;;31.15;24.28
550;BME280;20066;48.764;9.176;2023-07-13T12:07:16;98337.81;;;31.48;24.97
550;BME280;20066;48.764;9.176;2023-07-13T12:09:46;98339.94;;;31.36;23.29
550;BME280;20066;48.764;9.176;2023-07-13T12:12:19;98330.31;;;29.26;26.00
550;BME280;20066;48.764;9.176;2023-07-13T12:14:51;98333.78;;;31.24;23.93
550;BME280;20066;48.764;9.176;2023-07-13T12:17:23;98335.66;;;31.35;23.48
550;BME280;20066;48.764;9.176;2023-07-13T12:19:52;98333.03;;;32.29;22.58
550;BME280;20066;48.764;9.176;2023-07-13T12:22:22;98340.97;;;32.75;23.11
550;BME280;20066;48.764;9.176;2023-07-13T12:24:51;98329.28;;;33.48;23.05
550;BME280;20066;48.764;9.176;2023-07-13T12:27:21;98320.72;;;32.19;22.12
550;BME280;20066;48.764;9.176;2023-07-13T12:29:51;98322.25;;;31.82;22.40
550;BME280;20066;48.764;9.176;2023-07-13T12:32:20;98323.59;;;29.79;24.21
550;BME280;20066;48.764;9.176;2023-07-13T12:34:53;98315.84;;;30.19;24.12
550;BME280;20066;48.764;9.176;2023-07-13T12:37:27;98315.53;;;29.81;24.81
550;BME280;20066;48.764;9.176;2023-07-13T12:39:56;98321.50;;;28.94;25.37
550;BME280;20066;48.764;9.176;2023-07-13T12:42:27;98322.72;;;29.32;25.65
550;BME280;20066;48.764;9.176;2023-07-13T12:44:57;98318.25;;;28.85;27.18
550;BME280;20066;48.764;9.176;2023-07-13T12:47:26;98328.00;;;28.41;26.11
550;BME280;20066;48.764;9.176;2023-07-13T12:49:58;98320.97;;;31.10;23.07
550;BME280;20066;48.764;9.176;2023-07-13T12:52:30;98328.53;;;32.26;21.54
550;BME280;20066;48.764;9.176;2023-07-13T12:55:06;98335.13;;;32.04;23.14
550;BME280;20066;48.764;9.176;2023-07-13T12:57:46;98324.44;;;32.27;22.38
550;BME280;20066;48.764;9.176;2023-07-13T13:00:24;98321.78;;;33.56;20.76
550;BME280;20066;48.764;9.176;2023-07-13T13:02:56;98328.09;;;33.70;19.72
550;BME280;20066;48.764;9.176;2023-07-13T13:05:44;98331.22;;;33.53;21.39
550;BME280;20066;48.764;9.176;2023-07-13T13:08:14;98330.13;;;34.64;20.97
550;BME280;20066;48.764;9.176;2023-07-13T13:10:42;98325.69;;;32.63;21.69
550;BME280;20066;48.764;9.176;2023-07-13T13:13:12;98319.81;;;31.49;22.17
550;BME280;20066;48.764;9.176;2023-07-13T13:15:40;98307.97;;;31.48;21.89
550;BME280;20066;48.764;9.176;2023-07-13T13:18:15;98323.25;;;33.18;21.14
550;BME280;20066;48.764;9.176;2023-07-13T13:20:44;98325.13;;;32.14;21.74
550;BME280;20066;48.764;9.176;2023-07-13T13:23:15;98330.03;;;33.22;20.93
550;BME280;20066;48.764;9.176;2023-07-13T13:25:44;98332.44;;;33.00;21.31
550;BME280;20066;48.764;9.176;2023-07-13T13:28:14;98336.97;;;32.71;21.11
550;BME280;20066;48.764;9.176;2023-07-13T13:30:43;98326.13;;;33.12;20.83
550;BME280;20066;48.764;9.176;2023-07-13T13:33:12;98321.34;;;33.52;20.72
550;BME280;20066;48.764;9.176;2023-07-13T13:35:41;98327.53;;;33.19;21.06
550;BME280;20066;48.764;9.176;2023-07-13T13:38:11;98327.06;;;32.19;22.06
550;BME280;20066;48.764;9.176;2023-07-13T13:40:42;98325.81;;;32.01;20.85
550;BME280;20066;48.764;9.176;2023-07-13T13:43:15;98327.88;;;34.83;18.60
550;BME280;20066;48.764;9.176;2023-07-13T13:45:45;98319.41;;;34.55;19.28
550;BME280;20066;48.764;9.176;2023-07-13T13:48:18;98326.69;;;33.11;20.63
550;BME280;20066;48.764;9.176;2023-07-13T13:50:47;98318.50;;;30.77;23.20